sensor_id;sensor_type;location;lat;lon;timestamp;P1;durP1;ratioP1;P2;durP2;ratioP2
83141;SDS011;75194;51.180;5.972;2024-01-06T00:00:27;19.13;;;8.50;;
83141;SDS011;75194;51.180;5.972;2024-01-06T00:02:53;18.65;;;8.70;;
83141;SDS011;75194;51.180;5.972;2024-01-06T00:05:19;18.90;;;8.18;;
83141;SDS011;75194;51.180;5.972;2024-01-06T00:07:44;20.17;;;8.98;;
83141;SDS011;75194;51.180;5.972;2024-01-06T00:10:10;21.27;;;9.23;;
83141;SDS011;75194;51.180;5.972;2024-01-06T00:12:35;20.40;;;8.85;;
83141;SDS011;75194;51.180;5.972;2024-01-06T00:15:01;21.13;;;9.45;;
83141;SDS011;75194;51.180;5.972;2024-01-06T00:17:27;22.92;;;10.60;;
83141;SDS011;75194;51.180;5.972;2024-01-06T00:19:53;22.85;;;10.80;;
83141;SDS011;75194;51.180;5.972;2024-01-06T00:22:20;23.65;;;9.10;;
83141;SDS011;75194;51.180;5.972;2024-01-06T00:24:45;23.65;;;9.50;;
83141;SDS011;75194;51.180;5.972;2024-01-06T00:27:11;21.17;;;9.32;;
83141;SDS011;75194;51.180;5.972;2024-01-06T00:32:04;20.75;;;9.90;;
83141;SDS011;75194;51.180;5.972;2024-01-06T00:34:30;22.50;;;10.13;;
83141;SDS011;75194;51.180;5.972;2024-01-06T00:36:55;25.10;;;9.88;;
83141;SDS011;75194;51.180;5.972;2024-01-06T00:39:21;26.58;;;11.05;;
83141;SDS011;75194;51.180;5.972;2024-01-06T00:41:47;25.67;;;11.18;;
83141;SDS011;75194;51.180;5.972;2024-01-06T00:44:12;27.50;;;11.13;;
83141;SDS011;75194;51.180;5.972;2024-01-06T00:46:38;26.60;;;11.25;;
83141;SDS011;75194;51.180;5.972;2024-01-06T00:49:04;25.10;;;11.32;;
83141;SDS011;75194;51.180;5.972;2024-01-06T00:51:30;24.90;;;10.50;;
83141;SDS011;75194;51.180;5.972;2024-01-06T00:53:56;24.08;;;10.55;;
83141;SDS011;75194;51.180;5.972;2024-01-06T00:56:22;24.55;;;10.35;;
83141;SDS011;75194;51.180;5.972;2024-01-06T00:58:47;25.23;;;10.75;;
83141;SDS011;75194;51.180;5.972;2024-01-06T01:01:13;27.95;;;12.02;;
83141;SDS011;75194;51.180;5.972;2024-01-06T01:03:39;24.25;;;10.48;;
83141;SDS011;75194;51.180;5.972;2024-01-06T01:06:04;25.73;;;11.57;;
83141;SDS011;75194;51.180;5.972;2024-01-06T01:08:30;25.90;;;10.80;;
83141;SDS011;75194;51.180;5.972;2024-01-06T01:10:56;23.58;;;10.68;;
83141;SDS011;75194;51.180;5.972;2024-01-06T01:13:22;24.73;;;10.82;;
83141;SDS011;75194;51.180;5.972;2024-01-06T01:15:48;27.60;;;10.55;;
83141;SDS011;75194;51.180;5.972;2024-01-06T01:18:13;26.45;;;11.10;;
83141;SDS011;75194;51.180;5.972;2024-01-06T01:20:39;24.10;;;11.13;;
83141;SDS011;75194;51.180;5.972;2024-01-06T01:23:07;23.38;;;9.48;;
83141;SDS011;75194;51.180;5.972;2024-01-06T01:25:33;24.35;;;10.38;;
83141;SDS011;75194;51.180;5.972;2024-01-06T01:27:59;25.08;;;10.60;;
83141;SDS011;75194;51.180;5.972;2024-01-06T01:30:24;26.00;;;11.15;;
83141;SDS011;75194;51.180;5.972;2024-01-06T01:32:50;24.00;;;10.70;;
83141;SDS011;75194;51.180;5.972;2024-01-06T01:35:16;26.30;;;9.57;;
83141;SDS011;75194;51.180;5.972;2024-01-06T01:37:41;25.98;;;10.45;;
83141;SDS011;75194;51.180;5.972;2024-01-06T01:40:07;29.13;;;10.57;;
83141;SDS011;75194;51.180;5.972;2024-01-06T01:42:33;25.27;;;10.43;;
83141;SDS011;75194;51.180;5.972;2024-01-06T01:44:59;22.13;;;10.60;;
83141;SDS011;75194;51.180;5.972;2024-01-06T01:47:25;21.70;;;10.02;;
83141;SDS011;75194;51.180;5.972;2024-01-06T01:49:52;23.77;;;10.52;;
83141;SDS011;75194;51.180;5.972;2024-01-06T01:52:19;25.15;;;10.93;;
83141;SDS011;75194;51.180;5.972;2024-01-06T01:54:45;22.42;;;10.35;;
83141;SDS011;75194;51.180;5.972;2024-01-06T01:57:12;24.42;;;10.52;;
83141;SDS011;75194;51.180;5.972;2024-01-06T01:59:39;22.77;;;9.63;;
83141;SDS011;75194;51.180;5.972;2024-01-06T02:02:05;23.38;;;10.80;;
83141;SDS011;75194;51.180;5.972;2024-01-06T02:04:31;25.17;;;10.43;;
83141;SDS011;75194;51.180;5.972;2024-01-06T02:06:57;22.00;;;10.18;;
83141;SDS011;75194;51.180;5.972;2024-01-06T02:09:22;22.13;;;9.75;;
83141;SDS011;75194;51.180;5.972;2024-01-06T02:11:52;24.20;;;10.93;;
83141;SDS011;75194;51.180;5.972;2024-01-06T02:14:18;20.38;;;9.70;;
83141;SDS011;75194;51.180;5.972;2024-01-06T02:16:43;24.30;;;10.20;;
83141;SDS011;75194;51.180;5.972;2024-01-06T02:19:09;20.17;;;9.60;;
83141;SDS011;75194;51.180;5.972;2024-01-06T02:21:40;20.73;;;9.35;;
83141;SDS011;75194;51.180;5.972;2024-01-06T02:24:07;22.52;;;9.13;;
83141;SDS011;75194;51.180;5.972;2024-01-06T02:26:33;19.23;;;8.18;;
83141;SDS011;75194;51.180;5.972;2024-01-06T02:28:58;21.08;;;8.90;;
83141;SDS011;75194;51.180;5.972;2024-01-06T02:31:24;19.63;;;9.13;;
83141;SDS011;75194;51.180;5.972;2024-01-06T02:33:50;20.27;;;8.60;;
83141;SDS011;75194;51.180;5.972;2024-01-06T02:36:15;25.42;;;10.20;;
83141;SDS011;75194;51.180;5.972;2024-01-06T02:38:41;20.38;;;8.68;;
83141;SDS011;75194;51.180;5.972;2024-01-06T02:41:07;22.42;;;9.55;;
83141;SDS011;75194;51.180;5.972;2024-01-06T02:43:32;21.25;;;8.85;;
83141;SDS011;75194;51.180;5.972;2024-01-06T02:45:58;21.45;;;8.50;;
83141;SDS011;75194;51.180;5.972;2024-01-06T02:48:24;19.85;;;9.30;;
83141;SDS011;75194;51.180;5.972;2024-01-06T02:50:49;21.85;;;9.70;;
83141;SDS011;75194;51.180;5.972;2024-01-06T02:53:15;23.05;;;9.40;;
83141;SDS011;75194;51.180;5.972;2024-01-06T02:55:40;20.85;;;9.52;;
83141;SDS011;75194;51.180;5.972;2024-01-06T02:58:06;20.60;;;8.20;;
83141;SDS011;75194;51.180;5.972;2024-01-06T03:00:32;20.02;;;8.43;;
83141;SDS011;75194;51.180;5.972;2024-01-06T03:02:58;18.38;;;8.55;;
83141;SDS011;75194;51.180;5.972;2024-01-06T03:05:23;22.85;;;8.50;;
83141;SDS011;75194;51.180;5.972;2024-01-06T03:07:49;18.70;;;7.72;;
83141;SDS011;75194;51.180;5.972;2024-01-06T03:10:14;19.90;;;8.10;;
83141;SDS011;75194;51.180;5.972;2024-01-06T03:12:40;22.05;;;8.30;;
83141;SDS011;75194;51.180;5.972;2024-01-06T03:15:06;18.75;;;7.97;;
83141;SDS011;75194;51.180;5.972;2024-01-06T03:17:31;21.42;;;7.93;;
83141;SDS011;75194;51.180;5.972;2024-01-06T03:19:57;20.50;;;8.00;;
83141;SDS011;75194;51.180;5.972;2024-01-06T03:22:23;19.90;;;7.47;;
83141;SDS011;75194;51.180;5.972;2024-01-06T03:24:48;18.05;;;6.97;;
83141;SDS011;75194;51.180;5.972;2024-01-06T03:27:14;18.50;;;7.20;;
83141;SDS011;75194;51.180;5.972;2024-01-06T03:29:40;19.85;;;7.78;;
83141;SDS011;75194;51.180;5.972;2024-01-06T03:32:05;19.50;;;7.10;;
83141;SDS011;75194;51.180;5.972;2024-01-06T03:34:31;19.88;;;7.00;;
83141;SDS011;75194;51.180;5.972;2024-01-06T03:36:57;19.70;;;7.22;;
83141;SDS011;75194;51.180;5.972;2024-01-06T03:39:23;20.00;;;7.07;;
83141;SDS011;75194;51.180;5.972;2024-01-06T03:41:48;18.50;;;7.32;;
83141;SDS011;75194;51.180;5.972;2024-01-06T03:44:14;17.95;;;6.90;;
83141;SDS011;75194;51.180;5.972;2024-01-06T03:46:40;17.95;;;7.43;;
83141;SDS011;75194;51.180;5.972;2024-01-06T03:49:05;17.88;;;6.43;;
83141;SDS011;75194;51.180;5.972;2024-01-06T03:51:31;16.02;;;6.65;;
83141;SDS011;75194;51.180;5.972;2024-01-06T03:53:57;16.38;;;5.80;;
83141;SDS011;75194;51.180;5.972;2024-01-06T03:56:22;19.15;;;6.40;;
83141;SDS011;75194;51.180;5.972;2024-01-06T03:58:48;16.17;;;6.20;;
83141;SDS011;75194;51.180;5.972;2024-01-06T04:01:13;17.42;;;6.30;;
83141;SDS011;75194;51.180;5.972;2024-01-06T04:03:39;17.48;;;6.57;;
83141;SDS011;75194;51.180;5.972;2024-01-06T04:06:08;17.10;;;6.30;;
83141;SDS011;75194;51.180;5.972;2024-01-06T04:08:35;16.67;;;6.45;;
83141;SDS011;75194;51.180;5.972;2024-01-06T04:11:01;17.23;;;6.13;;
83141;SDS011;75194;51.180;5.972;2024-01-06T04:13:27;20.13;;;7.15;;
83141;SDS011;75194;51.180;5.972;2024-01-06T04:15:53;17.63;;;6.63;;
83141;SDS011;75194;51.180;5.972;2024-01-06T04:18:19;15.95;;;5.90;;
83141;SDS011;75194;51.180;5.972;2024-01-06T04:20:44;18.10;;;6.88;;
83141;SDS011;75194;51.180;5.972;2024-01-06T04:23:10;18.70;;;6.82;;
83141;SDS011;75194;51.180;5.972;2024-01-06T04:25:36;16.92;;;6.45;;
83141;SDS011;75194;51.180;5.972;2024-01-06T04:28:01;19.00;;;7.40;;
83141;SDS011;75194;51.180;5.972;2024-01-06T04:30:27;20.80;;;7.40;;
83141;SDS011;75194;51.180;5.972;2024-01-06T04:32:53;16.60;;;6.22;;
83141;SDS011;75194;51.180;5.972;2024-01-06T04:35:19;18.00;;;6.57;;
83141;SDS011;75194;51.180;5.972;2024-01-06T04:37:46;15.63;;;5.82;;
83141;SDS011;75194;51.180;5.972;2024-01-06T04:40:12;18.42;;;6.88;;
83141;SDS011;75194;51.180;5.972;2024-01-06T04:42:38;16.50;;;5.78;;
83141;SDS011;75194;51.180;5.972;2024-01-06T04:45:04;16.48;;;6.43;;
83141;SDS011;75194;51.180;5.972;2024-01-06T04:47:30;16.33;;;6.45;;
83141;SDS011;75194;51.180;5.972;2024-01-06T04:49:56;13.88;;;4.80;;
83141;SDS011;75194;51.180;5.972;2024-01-06T04:52:21;12.95;;;4.93;;
83141;SDS011;75194;51.180;5.972;2024-01-06T04:54:47;13.75;;;5.40;;
83141;SDS011;75194;51.180;5.972;2024-01-06T04:57:13;15.40;;;5.15;;
83141;SDS011;75194;51.180;5.972;2024-01-06T04:59:39;14.63;;;5.25;;
83141;SDS011;75194;51.180;5.972;2024-01-06T05:02:05;14.60;;;5.30;;
83141;SDS011;75194;51.180;5.972;2024-01-06T05:04:31;13.68;;;5.32;;
83141;SDS011;75194;51.180;5.972;2024-01-06T05:06:58;13.38;;;4.75;;
83141;SDS011;75194;51.180;5.972;2024-01-06T05:09:24;12.65;;;4.75;;
83141;SDS011;75194;51.180;5.972;2024-01-06T05:11:50;13.45;;;4.60;;
83141;SDS011;75194;51.180;5.972;2024-01-06T05:14:16;11.65;;;4.40;;
83141;SDS011;75194;51.180;5.972;2024-01-06T05:16:42;12.55;;;4.20;;
83141;SDS011;75194;51.180;5.972;2024-01-06T05:19:07;14.43;;;4.57;;
83141;SDS011;75194;51.180;5.972;2024-01-06T05:21:34;12.00;;;4.43;;
83141;SDS011;75194;51.180;5.972;2024-01-06T05:24:00;12.00;;;4.20;;
83141;SDS011;75194;51.180;5.972;2024-01-06T05:26:25;12.52;;;4.50;;
83141;SDS011;75194;51.180;5.972;2024-01-06T05:28:51;12.80;;;3.92;;
83141;SDS011;75194;51.180;5.972;2024-01-06T05:31:17;10.95;;;3.92;;
83141;SDS011;75194;51.180;5.972;2024-01-06T05:33:43;12.60;;;4.50;;
83141;SDS011;75194;51.180;5.972;2024-01-06T05:36:08;13.13;;;4.53;;
83141;SDS011;75194;51.180;5.972;2024-01-06T05:38:34;13.30;;;5.10;;
83141;SDS011;75194;51.180;5.972;2024-01-06T05:41:01;12.55;;;4.72;;
83141;SDS011;75194;51.180;5.972;2024-01-06T05:43:27;12.38;;;4.00;;
83141;SDS011;75194;51.180;5.972;2024-01-06T05:45:52;12.85;;;4.32;;
83141;SDS011;75194;51.180;5.972;2024-01-06T05:48:18;13.57;;;5.03;;
83141;SDS011;75194;51.180;5.972;2024-01-06T05:50:44;11.98;;;4.35;;
83141;SDS011;75194;51.180;5.972;2024-01-06T05:55:36;11.48;;;3.92;;
83141;SDS011;75194;51.180;5.972;2024-01-06T05:58:03;12.95;;;4.70;;
83141;SDS011;75194;51.180;5.972;2024-01-06T06:00:29;13.45;;;4.35;;
83141;SDS011;75194;51.180;5.972;2024-01-06T06:02:58;12.27;;;4.57;;
83141;SDS011;75194;51.180;5.972;2024-01-06T06:05:23;12.20;;;4.78;;
83141;SDS011;75194;51.180;5.972;2024-01-06T06:07:49;13.48;;;4.65;;
83141;SDS011;75194;51.180;5.972;2024-01-06T06:10:15;12.73;;;4.57;;
83141;SDS011;75194;51.180;5.972;2024-01-06T06:12:46;12.65;;;5.15;;
83141;SDS011;75194;51.180;5.972;2024-01-06T06:15:12;11.70;;;5.15;;
83141;SDS011;75194;51.180;5.972;2024-01-06T06:17:38;13.18;;;5.20;;
83141;SDS011;75194;51.180;5.972;2024-01-06T06:20:04;13.00;;;5.03;;
83141;SDS011;75194;51.180;5.972;2024-01-06T06:24:57;13.10;;;5.25;;
83141;SDS011;75194;51.180;5.972;2024-01-06T06:27:24;12.30;;;4.57;;
83141;SDS011;75194;51.180;5.972;2024-01-06T06:29:51;11.60;;;4.45;;
83141;SDS011;75194;51.180;5.972;2024-01-06T06:32:17;12.80;;;5.00;;
83141;SDS011;75194;51.180;5.972;2024-01-06T06:34:43;12.30;;;4.57;;
83141;SDS011;75194;51.180;5.972;2024-01-06T06:37:09;12.48;;;4.80;;
83141;SDS011;75194;51.180;5.972;2024-01-06T06:39:34;11.70;;;4.53;;
83141;SDS011;75194;51.180;5.972;2024-01-06T06:42:00;11.25;;;4.18;;
83141;SDS011;75194;51.180;5.972;2024-01-06T06:44:26;11.88;;;4.63;;
83141;SDS011;75194;51.180;5.972;2024-01-06T06:46:52;11.63;;;4.55;;
83141;SDS011;75194;51.180;5.972;2024-01-06T06:49:18;11.35;;;4.40;;
83141;SDS011;75194;51.180;5.972;2024-01-06T06:51:43;11.27;;;4.10;;
83141;SDS011;75194;51.180;5.972;2024-01-06T06:54:13;12.77;;;4.82;;
83141;SDS011;75194;51.180;5.972;2024-01-06T06:59:08;10.65;;;4.00;;
83141;SDS011;75194;51.180;5.972;2024-01-06T07:01:34;10.48;;;4.28;;
83141;SDS011;75194;51.180;5.972;2024-01-06T07:04:01;10.50;;;4.30;;
83141;SDS011;75194;51.180;5.972;2024-01-06T07:06:27;10.88;;;4.00;;
83141;SDS011;75194;51.180;5.972;2024-01-06T07:08:53;10.30;;;4.05;;
83141;SDS011;75194;51.180;5.972;2024-01-06T07:11:19;10.85;;;4.43;;
83141;SDS011;75194;51.180;5.972;2024-01-06T07:13:45;10.77;;;4.10;;
83141;SDS011;75194;51.180;5.972;2024-01-06T07:16:11;11.70;;;4.38;;
83141;SDS011;75194;51.180;5.972;2024-01-06T07:18:37;9.60;;;3.58;;
83141;SDS011;75194;51.180;5.972;2024-01-06T07:21:05;11.73;;;3.97;;
83141;SDS011;75194;51.180;5.972;2024-01-06T07:23:34;10.88;;;4.05;;
83141;SDS011;75194;51.180;5.972;2024-01-06T07:26:00;12.68;;;4.45;;
83141;SDS011;75194;51.180;5.972;2024-01-06T07:28:26;12.75;;;4.97;;
83141;SDS011;75194;51.180;5.972;2024-01-06T07:30:52;12.20;;;4.28;;
83141;SDS011;75194;51.180;5.972;2024-01-06T07:33:18;12.55;;;4.75;;
83141;SDS011;75194;51.180;5.972;2024-01-06T07:35:43;11.68;;;3.97;;
83141;SDS011;75194;51.180;5.972;2024-01-06T07:38:10;12.48;;;5.07;;
83141;SDS011;75194;51.180;5.972;2024-01-06T07:40:38;11.80;;;4.15;;
83141;SDS011;75194;51.180;5.972;2024-01-06T07:43:04;12.77;;;4.75;;
83141;SDS011;75194;51.180;5.972;2024-01-06T07:45:30;12.23;;;4.40;;
83141;SDS011;75194;51.180;5.972;2024-01-06T07:47:57;12.65;;;5.15;;
83141;SDS011;75194;51.180;5.972;2024-01-06T07:50:25;12.48;;;4.53;;
83141;SDS011;75194;51.180;5.972;2024-01-06T07:52:52;12.90;;;4.50;;
83141;SDS011;75194;51.180;5.972;2024-01-06T07:55:18;12.50;;;4.47;;
83141;SDS011;75194;51.180;5.972;2024-01-06T07:57:44;12.48;;;4.40;;
83141;SDS011;75194;51.180;5.972;2024-01-06T08:00:10;13.30;;;4.22;;
83141;SDS011;75194;51.180;5.972;2024-01-06T08:02:39;12.02;;;4.72;;
83141;SDS011;75194;51.180;5.972;2024-01-06T08:05:05;11.27;;;4.20;;
83141;SDS011;75194;51.180;5.972;2024-01-06T08:07:32;12.45;;;4.65;;
83141;SDS011;75194;51.180;5.972;2024-01-06T08:09:58;12.88;;;5.18;;
83141;SDS011;75194;51.180;5.972;2024-01-06T08:12:23;12.77;;;4.68;;
83141;SDS011;75194;51.180;5.972;2024-01-06T08:14:49;13.07;;;4.85;;
83141;SDS011;75194;51.180;5.972;2024-01-06T08:17:14;13.55;;;5.03;;
83141;SDS011;75194;51.180;5.972;2024-01-06T08:19:40;13.13;;;5.20;;
83141;SDS011;75194;51.180;5.972;2024-01-06T08:22:07;13.15;;;4.18;;
83141;SDS011;75194;51.180;5.972;2024-01-06T08:24:32;14.43;;;5.28;;
83141;SDS011;75194;51.180;5.972;2024-01-06T08:26:58;12.80;;;4.63;;
83141;SDS011;75194;51.180;5.972;2024-01-06T08:29:24;13.65;;;4.72;;
83141;SDS011;75194;51.180;5.972;2024-01-06T08:31:50;13.52;;;5.28;;
83141;SDS011;75194;51.180;5.972;2024-01-06T08:34:17;12.55;;;4.60;;
83141;SDS011;75194;51.180;5.972;2024-01-06T08:36:43;12.70;;;4.60;;
83141;SDS011;75194;51.180;5.972;2024-01-06T08:39:09;12.90;;;5.50;;
83141;SDS011;75194;51.180;5.972;2024-01-06T08:41:35;11.18;;;4.20;;
83141;SDS011;75194;51.180;5.972;2024-01-06T08:44:00;12.68;;;4.32;;
83141;SDS011;75194;51.180;5.972;2024-01-06T08:46:26;13.30;;;4.65;;
83141;SDS011;75194;51.180;5.972;2024-01-06T08:48:52;13.35;;;4.80;;
83141;SDS011;75194;51.180;5.972;2024-01-06T08:51:17;10.77;;;4.85;;
83141;SDS011;75194;51.180;5.972;2024-01-06T08:53:45;14.73;;;4.63;;
83141;SDS011;75194;51.180;5.972;2024-01-06T08:56:11;12.60;;;4.13;;
83141;SDS011;75194;51.180;5.972;2024-01-06T08:58:36;14.00;;;4.88;;
83141;SDS011;75194;51.180;5.972;2024-01-06T09:01:02;12.38;;;4.70;;
83141;SDS011;75194;51.180;5.972;2024-01-06T09:03:28;12.80;;;4.38;;
83141;SDS011;75194;51.180;5.972;2024-01-06T09:05:55;12.75;;;4.72;;
83141;SDS011;75194;51.180;5.972;2024-01-06T09:08:22;12.02;;;3.08;;
83141;SDS011;75194;51.180;5.972;2024-01-06T09:10:49;13.18;;;4.15;;
83141;SDS011;75194;51.180;5.972;2024-01-06T09:13:17;12.50;;;4.53;;
83141;SDS011;75194;51.180;5.972;2024-01-06T09:15:43;12.68;;;4.47;;
83141;SDS011;75194;51.180;5.972;2024-01-06T09:18:09;11.73;;;4.22;;
83141;SDS011;75194;51.180;5.972;2024-01-06T09:20:34;12.57;;;4.63;;
83141;SDS011;75194;51.180;5.972;2024-01-06T09:23:00;10.88;;;4.25;;
83141;SDS011;75194;51.180;5.972;2024-01-06T09:25:26;12.75;;;5.10;;
83141;SDS011;75194;51.180;5.972;2024-01-06T09:27:52;11.88;;;4.45;;
83141;SDS011;75194;51.180;5.972;2024-01-06T09:30:18;12.30;;;4.75;;
83141;SDS011;75194;51.180;5.972;2024-01-06T09:32:44;13.50;;;4.13;;
83141;SDS011;75194;51.180;5.972;2024-01-06T09:35:09;13.88;;;4.95;;
83141;SDS011;75194;51.180;5.972;2024-01-06T09:37:35;12.73;;;4.72;;
83141;SDS011;75194;51.180;5.972;2024-01-06T09:40:03;13.27;;;4.63;;
83141;SDS011;75194;51.180;5.972;2024-01-06T09:42:29;11.18;;;4.18;;
83141;SDS011;75194;51.180;5.972;2024-01-06T09:44:55;11.73;;;4.53;;
83141;SDS011;75194;51.180;5.972;2024-01-06T09:47:22;12.02;;;4.50;;
83141;SDS011;75194;51.180;5.972;2024-01-06T09:49:49;10.45;;;4.00;;
83141;SDS011;75194;51.180;5.972;2024-01-06T09:52:15;13.38;;;4.78;;
83141;SDS011;75194;51.180;5.972;2024-01-06T09:54:53;14.93;;;5.22;;
83141;SDS011;75194;51.180;5.972;2024-01-06T09:57:22;12.85;;;4.53;;
83141;SDS011;75194;51.180;5.972;2024-01-06T09:59:48;13.43;;;4.85;;
83141;SDS011;75194;51.180;5.972;2024-01-06T10:02:14;12.40;;;4.03;;
83141;SDS011;75194;51.180;5.972;2024-01-06T10:04:41;11.77;;;4.88;;
83141;SDS011;75194;51.180;5.972;2024-01-06T10:07:09;11.85;;;4.03;;
83141;SDS011;75194;51.180;5.972;2024-01-06T10:09:37;12.55;;;4.03;;
83141;SDS011;75194;51.180;5.972;2024-01-06T10:12:03;14.82;;;4.78;;
83141;SDS011;75194;51.180;5.972;2024-01-06T10:14:29;12.63;;;4.90;;
83141;SDS011;75194;51.180;5.972;2024-01-06T10:16:55;12.80;;;4.65;;
83141;SDS011;75194;51.180;5.972;2024-01-06T10:19:21;14.60;;;5.10;;
83141;SDS011;75194;51.180;5.972;2024-01-06T10:21:48;13.20;;;5.03;;
83141;SDS011;75194;51.180;5.972;2024-01-06T10:24:14;12.23;;;5.03;;
83141;SDS011;75194;51.180;5.972;2024-01-06T10:26:42;13.52;;;5.35;;
83141;SDS011;75194;51.180;5.972;2024-01-06T10:29:07;14.73;;;5.50;;
83141;SDS011;75194;51.180;5.972;2024-01-06T10:31:33;13.52;;;4.90;;
83141;SDS011;75194;51.180;5.972;2024-01-06T10:33:59;15.35;;;5.38;;
83141;SDS011;75194;51.180;5.972;2024-01-06T10:36:25;13.82;;;5.15;;
83141;SDS011;75194;51.180;5.972;2024-01-06T10:38:52;14.95;;;5.45;;
83141;SDS011;75194;51.180;5.972;2024-01-06T10:41:17;12.40;;;5.15;;
83141;SDS011;75194;51.180;5.972;2024-01-06T10:43:45;15.38;;;5.32;;
83141;SDS011;75194;51.180;5.972;2024-01-06T10:46:13;15.57;;;5.15;;
83141;SDS011;75194;51.180;5.972;2024-01-06T10:48:41;13.30;;;5.25;;
83141;SDS011;75194;51.180;5.972;2024-01-06T10:53:34;12.98;;;4.82;;
83141;SDS011;75194;51.180;5.972;2024-01-06T10:56:04;11.77;;;4.75;;
83141;SDS011;75194;51.180;5.972;2024-01-06T10:58:32;12.23;;;4.22;;
83141;SDS011;75194;51.180;5.972;2024-01-06T11:01:02;12.98;;;4.82;;
83141;SDS011;75194;51.180;5.972;2024-01-06T11:03:29;12.70;;;5.43;;
83141;SDS011;75194;51.180;5.972;2024-01-06T11:05:56;14.48;;;5.65;;
83141;SDS011;75194;51.180;5.972;2024-01-06T11:08:22;13.95;;;5.13;;
83141;SDS011;75194;51.180;5.972;2024-01-06T11:10:50;15.93;;;5.55;;
83141;SDS011;75194;51.180;5.972;2024-01-06T11:13:21;13.35;;;5.28;;
83141;SDS011;75194;51.180;5.972;2024-01-06T11:15:48;14.20;;;5.43;;
83141;SDS011;75194;51.180;5.972;2024-01-06T11:18:37;13.68;;;5.60;;
83141;SDS011;75194;51.180;5.972;2024-01-06T11:24:03;13.50;;;5.72;;
83141;SDS011;75194;51.180;5.972;2024-01-06T11:26:53;14.63;;;6.10;;
83141;SDS011;75194;51.180;5.972;2024-01-06T11:29:21;15.10;;;6.75;;
83141;SDS011;75194;51.180;5.972;2024-01-06T11:34:51;16.05;;;6.68;;
83141;SDS011;75194;51.180;5.972;2024-01-06T11:38:06;16.83;;;6.65;;
83141;SDS011;75194;51.180;5.972;2024-01-06T11:40:08;14.73;;;5.97;;
83141;SDS011;75194;51.180;5.972;2024-01-06T11:42:40;14.63;;;6.18;;
83141;SDS011;75194;51.180;5.972;2024-01-06T11:45:06;14.25;;;6.43;;
83141;SDS011;75194;51.180;5.972;2024-01-06T11:47:33;14.18;;;6.40;;
83141;SDS011;75194;51.180;5.972;2024-01-06T11:50:01;15.00;;;6.43;;
83141;SDS011;75194;51.180;5.972;2024-01-06T11:52:33;13.45;;;5.63;;
83141;SDS011;75194;51.180;5.972;2024-01-06T11:55:00;14.82;;;6.15;;
83141;SDS011;75194;51.180;5.972;2024-01-06T11:57:26;16.27;;;5.57;;
83141;SDS011;75194;51.180;5.972;2024-01-06T11:59:52;14.82;;;5.75;;
83141;SDS011;75194;51.180;5.972;2024-01-06T12:02:18;15.23;;;6.00;;
83141;SDS011;75194;51.180;5.972;2024-01-06T12:04:47;15.75;;;6.28;;
83141;SDS011;75194;51.180;5.972;2024-01-06T12:07:15;14.80;;;6.47;;
83141;SDS011;75194;51.180;5.972;2024-01-06T12:09:41;14.02;;;6.05;;
83141;SDS011;75194;51.180;5.972;2024-01-06T12:12:06;16.95;;;6.22;;
83141;SDS011;75194;51.180;5.972;2024-01-06T12:14:33;17.48;;;6.53;;
83141;SDS011;75194;51.180;5.972;2024-01-06T12:16:59;16.80;;;6.40;;
83141;SDS011;75194;51.180;5.972;2024-01-06T12:19:31;15.27;;;6.28;;
83141;SDS011;75194;51.180;5.972;2024-01-06T12:21:58;16.90;;;6.85;;
83141;SDS011;75194;51.180;5.972;2024-01-06T12:24:24;17.27;;;7.18;;
83141;SDS011;75194;51.180;5.972;2024-01-06T12:26:52;15.18;;;6.28;;
83141;SDS011;75194;51.180;5.972;2024-01-06T12:29:18;17.23;;;6.10;;
83141;SDS011;75194;51.180;5.972;2024-01-06T12:31:44;14.77;;;6.55;;
83141;SDS011;75194;51.180;5.972;2024-01-06T12:34:11;16.25;;;7.38;;
83141;SDS011;75194;51.180;5.972;2024-01-06T12:36:37;17.02;;;7.35;;
83141;SDS011;75194;51.180;5.972;2024-01-06T12:39:04;16.77;;;7.18;;
83141;SDS011;75194;51.180;5.972;2024-01-06T12:41:30;17.02;;;6.82;;
83141;SDS011;75194;51.180;5.972;2024-01-06T12:43:58;18.83;;;7.13;;
83141;SDS011;75194;51.180;5.972;2024-01-06T12:48:51;15.20;;;6.40;;
83141;SDS011;75194;51.180;5.972;2024-01-06T12:51:17;14.43;;;6.68;;
83141;SDS011;75194;51.180;5.972;2024-01-06T12:53:42;19.10;;;6.85;;
83141;SDS011;75194;51.180;5.972;2024-01-06T12:56:08;18.52;;;7.45;;
83141;SDS011;75194;51.180;5.972;2024-01-06T12:58:34;16.00;;;6.68;;
83141;SDS011;75194;51.180;5.972;2024-01-06T13:00:59;18.20;;;7.07;;
83141;SDS011;75194;51.180;5.972;2024-01-06T13:03:25;15.18;;;5.80;;
83141;SDS011;75194;51.180;5.972;2024-01-06T13:05:50;14.73;;;6.20;;
83141;SDS011;75194;51.180;5.972;2024-01-06T13:08:16;14.95;;;5.68;;
83141;SDS011;75194;51.180;5.972;2024-01-06T13:10:42;13.20;;;5.72;;
83141;SDS011;75194;51.180;5.972;2024-01-06T13:13:08;13.43;;;5.32;;
83141;SDS011;75194;51.180;5.972;2024-01-06T13:15:34;14.07;;;5.53;;
83141;SDS011;75194;51.180;5.972;2024-01-06T13:17:59;12.60;;;5.30;;
83141;SDS011;75194;51.180;5.972;2024-01-06T13:20:25;13.27;;;5.68;;
83141;SDS011;75194;51.180;5.972;2024-01-06T13:22:51;13.52;;;5.10;;
83141;SDS011;75194;51.180;5.972;2024-01-06T13:25:17;13.30;;;6.03;;
83141;SDS011;75194;51.180;5.972;2024-01-06T13:27:44;12.32;;;5.57;;
83141;SDS011;75194;51.180;5.972;2024-01-06T13:30:10;14.07;;;5.55;;
83141;SDS011;75194;51.180;5.972;2024-01-06T13:32:37;13.90;;;5.57;;
83141;SDS011;75194;51.180;5.972;2024-01-06T13:35:03;15.77;;;5.40;;
83141;SDS011;75194;51.180;5.972;2024-01-06T13:37:33;13.68;;;5.70;;
83141;SDS011;75194;51.180;5.972;2024-01-06T13:39:59;13.38;;;5.25;;
83141;SDS011;75194;51.180;5.972;2024-01-06T13:42:25;12.45;;;5.32;;
83141;SDS011;75194;51.180;5.972;2024-01-06T13:44:50;13.50;;;5.70;;
83141;SDS011;75194;51.180;5.972;2024-01-06T13:47:16;13.82;;;6.18;;
83141;SDS011;75194;51.180;5.972;2024-01-06T13:49:41;12.68;;;5.20;;
83141;SDS011;75194;51.180;5.972;2024-01-06T13:52:07;13.80;;;5.45;;
83141;SDS011;75194;51.180;5.972;2024-01-06T13:54:34;12.18;;;4.78;;
83141;SDS011;75194;51.180;5.972;2024-01-06T13:57:00;12.48;;;5.43;;
83141;SDS011;75194;51.180;5.972;2024-01-06T13:59:26;14.30;;;5.45;;
83141;SDS011;75194;51.180;5.972;2024-01-06T14:01:52;12.73;;;5.20;;
83141;SDS011;75194;51.180;5.972;2024-01-06T14:04:18;14.50;;;6.03;;
83141;SDS011;75194;51.180;5.972;2024-01-06T14:06:44;14.15;;;5.85;;
83141;SDS011;75194;51.180;5.972;2024-01-06T14:09:12;13.45;;;5.25;;
83141;SDS011;75194;51.180;5.972;2024-01-06T14:11:38;13.57;;;5.75;;
83141;SDS011;75194;51.180;5.972;2024-01-06T14:14:04;12.38;;;5.78;;
83141;SDS011;75194;51.180;5.972;2024-01-06T14:16:30;13.77;;;5.60;;
83141;SDS011;75194;51.180;5.972;2024-01-06T14:18:56;15.10;;;5.63;;
83141;SDS011;75194;51.180;5.972;2024-01-06T14:21:22;13.68;;;5.63;;
83141;SDS011;75194;51.180;5.972;2024-01-06T14:23:51;14.20;;;5.47;;
83141;SDS011;75194;51.180;5.972;2024-01-06T14:26:17;13.30;;;5.82;;
83141;SDS011;75194;51.180;5.972;2024-01-06T14:28:45;16.20;;;7.07;;
83141;SDS011;75194;51.180;5.972;2024-01-06T14:31:11;13.43;;;5.47;;
83141;SDS011;75194;51.180;5.972;2024-01-06T14:33:36;12.85;;;5.75;;
83141;SDS011;75194;51.180;5.972;2024-01-06T14:36:02;13.82;;;5.30;;
83141;SDS011;75194;51.180;5.972;2024-01-06T14:38:28;12.93;;;5.22;;
83141;SDS011;75194;51.180;5.972;2024-01-06T14:40:54;14.90;;;5.88;;
83141;SDS011;75194;51.180;5.972;2024-01-06T14:43:19;14.38;;;6.10;;
83141;SDS011;75194;51.180;5.972;2024-01-06T14:45:46;15.38;;;6.05;;
83141;SDS011;75194;51.180;5.972;2024-01-06T14:48:12;15.40;;;6.05;;